sensor_id;sensor_type;location;lat;lon;timestamp;pressure;altitude;pressure_sealevel;temperature;humidity
64739;BME280;51175;51.186;0.276;2023-01-25T00:00:05;103363.91;;;10.28;66.93
64739;BME280;51175;51.186;0.276;2023-01-25T00:00:37;103361.28;;;10.28;66.86
64739;BME280;51175;51.186;0.276;2023-01-25T00:01:07;103357.00;;;10.27;67.07
64739;BME280;51175;51.186;0.276;2023-01-25T00:01:38;103358.63;;;10.28;66.92
64739;BME280;51175;51.186;0.276;2023-01-25T00:02:08;103357.81;;;10.27;67.13
64739;BME280;51175;51.186;0.276;2023-01-25T00:02:38;103356.19;;;10.26;67.11
64739;BME280;51175;51.186;0.276;2023-01-25T00:03:09;103355.16;;;10.27;67.16
64739;BME280;51175;51.186;0.276;2023-01-25T00:03:39;103350.72;;;10.28;67.01
64739;BME280;51175;51.186;0.276;2023-01-25T00:04:11;103352.53;;;10.27;66.96
64739;BME280;51175;51.186;0.276;2023-01-25T00:04:41;103354.38;;;10.27;66.94
64739;BME280;51175;51.186;0.276;2023-01-25T00:05:12;103342.78;;;10.28;66.93
64739;BME280;51175;51.186;0.276;2023-01-25T00:05:42;103350.72;;;10.28;66.93
64739;BME280;51175;51.186;0.276;2023-01-25T00:06:12;103352.53;;;10.27;66.85
64739;BME280;51175;51.186;0.276;2023-01-25T00:06:43;103352.53;;;10.27;66.97
64739;BME280;51175;51.186;0.276;2023-01-25T00:07:13;103351.72;;;10.27;67.07
64739;BME280;51175;51.186;0.276;2023-01-25T00:07:43;103342.78;;;10.28;66.98
64739;BME280;51175;51.186;0.276;2023-01-25T00:08:14;103346.25;;;10.28;67.07
64739;BME280;51175;51.186;0.276;2023-01-25T00:08:48;103343.78;;;10.27;66.98
64739;BME280;51175;51.186;0.276;2023-01-25T00:09:19;103344.59;;;10.27;66.99
64739;BME280;51175;51.186;0.276;2023-01-25T00:09:50;103349.88;;;10.27;66.96
64739;BME280;51175;51.186;0.276;2023-01-25T00:10:20;103352.53;;;10.27;66.78
64739;BME280;51175;51.186;0.276;2023-01-25T00:10:50;103351.72;;;10.27;67.01
64739;BME280;51175;51.186;0.276;2023-01-25T00:11:21;103349.09;;;10.27;66.93
64739;BME280;51175;51.186;0.276;2023-01-25T00:11:51;103354.38;;;10.27;66.90
64739;BME280;51175;51.186;0.276;2023-01-25T00:12:22;103350.91;;;10.26;66.97
64739;BME280;51175;51.186;0.276;2023-01-25T00:12:52;103351.91;;;10.25;66.97
64739;BME280;51175;51.186;0.276;2023-01-25T00:13:25;103349.09;;;10.27;66.94
64739;BME280;51175;51.186;0.276;2023-01-25T00:13:56;103339.50;;;10.26;67.03
64739;BME280;51175;51.186;0.276;2023-01-25T00:14:26;103344.00;;;10.25;66.95
64739;BME280;51175;51.186;0.276;2023-01-25T00:14:56;103348.25;;;10.26;67.21
64739;BME280;51175;51.186;0.276;2023-01-25T00:15:27;103346.63;;;10.25;66.92
64739;BME280;51175;51.186;0.276;2023-01-25T00:16:01;103337.69;;;10.26;66.95
64739;BME280;51175;51.186;0.276;2023-01-25T00:16:32;103338.69;;;10.25;67.02
64739;BME280;51175;51.186;0.276;2023-01-25T00:17:02;103340.34;;;10.26;67.00
64739;BME280;51175;51.186;0.276;2023-01-25T00:17:33;103340.34;;;10.26;67.01
64739;BME280;51175;51.186;0.276;2023-01-25T00:18:03;103333.41;;;10.25;67.03
64739;BME280;51175;51.186;0.276;2023-01-25T00:18:34;103339.50;;;10.26;67.13
64739;BME280;51175;51.186;0.276;2023-01-25T00:19:05;103340.34;;;10.26;67.08
64739;BME280;51175;51.186;0.276;2023-01-25T00:19:36;103338.69;;;10.25;67.11
64739;BME280;51175;51.186;0.276;2023-01-25T00:20:07;103336.06;;;10.25;66.99
64739;BME280;51175;51.186;0.276;2023-01-25T00:20:38;103331.56;;;10.26;67.06
64739;BME280;51175;51.186;0.276;2023-01-25T00:21:17;103329.75;;;10.26;66.97
64739;BME280;51175;51.186;0.276;2023-01-25T00:21:47;103336.66;;;10.27;66.93
64739;BME280;51175;51.186;0.276;2023-01-25T00:22:18;103335.22;;;10.25;66.83
64739;BME280;51175;51.186;0.276;2023-01-25T00:22:48;103340.34;;;10.26;66.95
64739;BME280;51175;51.186;0.276;2023-01-25T00:23:18;103333.41;;;10.25;67.03
64739;BME280;51175;51.186;0.276;2023-01-25T00:23:49;103340.50;;;10.25;67.13
64739;BME280;51175;51.186;0.276;2023-01-25T00:24:19;103342.97;;;10.26;67.08
64739;BME280;51175;51.186;0.276;2023-01-25T00:24:52;103336.84;;;10.26;67.08
64739;BME280;51175;51.186;0.276;2023-01-25T00:25:22;103348.25;;;10.26;66.89
64739;BME280;51175;51.186;0.276;2023-01-25T00:25:56;103334.22;;;10.26;66.84
64739;BME280;51175;51.186;0.276;2023-01-25T00:26:32;103333.41;;;10.25;67.01
64739;BME280;51175;51.186;0.276;2023-01-25T00:27:02;103332.59;;;10.25;66.96
64739;BME280;51175;51.186;0.276;2023-01-25T00:27:33;103332.59;;;10.25;66.79
64739;BME280;51175;51.186;0.276;2023-01-25T00:28:03;103335.22;;;10.25;66.97
64739;BME280;51175;51.186;0.276;2023-01-25T00:28:34;103332.59;;;10.25;67.01
64739;BME280;51175;51.186;0.276;2023-01-25T00:29:05;103336.06;;;10.25;67.00
64739;BME280;51175;51.186;0.276;2023-01-25T00:29:35;103332.59;;;10.25;66.88
64739;BME280;51175;51.186;0.276;2023-01-25T00:30:06;103342.13;;;10.26;66.92
64739;BME280;51175;51.186;0.276;2023-01-25T00:30:37;103340.50;;;10.25;66.93
64739;BME280;51175;51.186;0.276;2023-01-25T00:31:10;103337.88;;;10.25;67.02
64739;BME280;51175;51.186;0.276;2023-01-25T00:33:06;103337.88;;;10.25;66.87
64739;BME280;51175;51.186;0.276;2023-01-25T00:34:45;103336.25;;;10.24;66.83
64739;BME280;51175;51.186;0.276;2023-01-25T00:34:50;103331.75;;;10.24;66.89
64739;BME280;51175;51.186;0.276;2023-01-25T00:35:21;103335.41;;;10.23;67.01
64739;BME280;51175;51.186;0.276;2023-01-25T00:35:55;103334.59;;;10.23;66.95
64739;BME280;51175;51.186;0.276;2023-01-25T00:37:34;103332.78;;;10.23;66.91
64739;BME280;51175;51.186;0.276;2023-01-25T00:38:29;103343.53;;;10.22;66.85
64739;BME280;51175;51.186;0.276;2023-01-25T00:39:04;103332.97;;;10.22;66.74
64739;BME280;51175;51.186;0.276;2023-01-25T00:39:34;103330.50;;;10.20;66.99
64739;BME280;51175;51.186;0.276;2023-01-25T00:40:05;103328.69;;;10.21;66.94
64739;BME280;51175;51.186;0.276;2023-01-25T00:40:36;103331.34;;;10.21;66.94
64739;BME280;51175;51.186;0.276;2023-01-25T00:41:07;103334.97;;;10.19;67.09
64739;BME280;51175;51.186;0.276;2023-01-25T00:41:39;103330.50;;;10.20;67.21
64739;BME280;51175;51.186;0.276;2023-01-25T00:42:11;103333.97;;;10.21;67.16
64739;BME280;51175;51.186;0.276;2023-01-25T00:42:41;103327.03;;;10.19;67.21
64739;BME280;51175;51.186;0.276;2023-01-25T00:43:12;103327.03;;;10.19;67.32
64739;BME280;51175;51.186;0.276;2023-01-25T00:43:43;103331.34;;;10.21;67.28
64739;BME280;51175;51.186;0.276;2023-01-25T00:44:14;103327.03;;;10.19;67.31
64739;BME280;51175;51.186;0.276;2023-01-25T00:44:44;103328.88;;;10.19;67.32
64739;BME280;51175;51.186;0.276;2023-01-25T00:45:15;103331.34;;;10.21;67.44
64739;BME280;51175;51.186;0.276;2023-01-25T00:45:45;103326.84;;;10.21;67.11
64739;BME280;51175;51.186;0.276;2023-01-25T00:46:16;103326.06;;;10.21;67.11
64739;BME280;51175;51.186;0.276;2023-01-25T00:46:47;103330.50;;;10.20;67.12
64739;BME280;51175;51.186;0.276;2023-01-25T00:47:18;103325.22;;;10.20;67.28
64739;BME280;51175;51.186;0.276;2023-01-25T00:47:48;103325.22;;;10.20;67.22
64739;BME280;51175;51.186;0.276;2023-01-25T00:48:18;103327.88;;;10.20;67.28
64739;BME280;51175;51.186;0.276;2023-01-25T00:48:52;103321.56;;;10.21;67.17
64739;BME280;51175;51.186;0.276;2023-01-25T00:49:26;103325.22;;;10.20;67.24
64739;BME280;51175;51.186;0.276;2023-01-25T00:49:56;103325.22;;;10.20;67.17
64739;BME280;51175;51.186;0.276;2023-01-25T00:50:27;103327.88;;;10.20;67.31
64739;BME280;51175;51.186;0.276;2023-01-25T00:51:00;103328.69;;;10.21;67.24
64739;BME280;51175;51.186;0.276;2023-01-25T00:51:31;103320.78;;;10.21;67.29
64739;BME280;51175;51.186;0.276;2023-01-25T00:52:02;103320.78;;;10.21;67.21
64739;BME280;51175;51.186;0.276;2023-01-25T00:52:33;103327.88;;;10.20;67.10
64739;BME280;51175;51.186;0.276;2023-01-25T00:53:04;103321.56;;;10.21;67.10
64739;BME280;51175;51.186;0.276;2023-01-25T00:53:34;103314.66;;;10.20;67.05
64739;BME280;51175;51.186;0.276;2023-01-25T00:54:04;103318.94;;;10.21;66.79
64739;BME280;51175;51.186;0.276;2023-01-25T00:54:35;103321.56;;;10.21;66.91
64739;BME280;51175;51.186;0.276;2023-01-25T00:55:06;103320.78;;;10.21;67.12
64739;BME280;51175;51.186;0.276;2023-01-25T00:55:36;103318.13;;;10.21;66.97
64739;BME280;51175;51.186;0.276;2023-01-25T00:56:06;103323.41;;;10.21;67.15
64739;BME280;51175;51.186;0.276;2023-01-25T00:56:37;103314.47;;;10.22;67.27
64739;BME280;51175;51.186;0.276;2023-01-25T00:57:08;103318.13;;;10.21;67.28
64739;BME280;51175;51.186;0.276;2023-01-25T00:57:38;103315.50;;;10.21;67.24
64739;BME280;51175;51.186;0.276;2023-01-25T00:58:09;103311.19;;;10.19;67.09
64739;BME280;51175;51.186;0.276;2023-01-25T00:58:40;103314.66;;;10.20;67.16
64739;BME280;51175;51.186;0.276;2023-01-25T00:59:11;103311.84;;;10.22;67.10
64739;BME280;51175;51.186;0.276;2023-01-25T00:59:42;103315.50;;;10.21;67.12
64739;BME280;51175;51.186;0.276;2023-01-25T01:00:14;103312.84;;;10.21;67.31
64739;BME280;51175;51.186;0.276;2023-01-25T01:00:44;103320.78;;;10.21;67.18
64739;BME280;51175;51.186;0.276;2023-01-25T01:01:14;103312.03;;;10.20;67.24
64739;BME280;51175;51.186;0.276;2023-01-25T01:01:45;103314.66;;;10.20;67.18
64739;BME280;51175;51.186;0.276;2023-01-25T01:02:15;103312.03;;;10.20;67.18
64739;BME280;51175;51.186;0.276;2023-01-25T01:02:46;103316.28;;;10.21;67.10
64739;BME280;51175;51.186;0.276;2023-01-25T01:03:16;103314.66;;;10.20;67.18
64739;BME280;51175;51.186;0.276;2023-01-25T01:03:46;103316.28;;;10.21;67.09
64739;BME280;51175;51.186;0.276;2023-01-25T01:04:18;103311.00;;;10.21;67.20
64739;BME280;51175;51.186;0.276;2023-01-25T01:04:48;103315.50;;;10.21;67.13
64739;BME280;51175;51.186;0.276;2023-01-25T01:05:19;103312.03;;;10.20;67.12
64739;BME280;51175;51.186;0.276;2023-01-25T01:06:37;103311.84;;;10.22;67.02
64739;BME280;51175;51.186;0.276;2023-01-25T01:07:10;103313.66;;;10.21;67.08
64739;BME280;51175;51.186;0.276;2023-01-25T01:07:41;103310.22;;;10.21;67.18
64739;BME280;51175;51.186;0.276;2023-01-25T01:08:13;103313.66;;;10.21;66.95
64739;BME280;51175;51.186;0.276;2023-01-25T01:08:44;103309.38;;;10.20;67.24
64739;BME280;51175;51.186;0.276;2023-01-25T01:09:16;103304.94;;;10.21;67.08
64739;BME280;51175;51.186;0.276;2023-01-25T01:09:47;103314.66;;;10.20;67.16
64739;BME280;51175;51.186;0.276;2023-01-25T01:10:17;103306.75;;;10.20;67.06
64739;BME280;51175;51.186;0.276;2023-01-25T01:10:48;103306.75;;;10.20;67.15
64739;BME280;51175;51.186;0.276;2023-01-25T01:11:18;103306.75;;;10.20;66.98
64739;BME280;51175;51.186;0.276;2023-01-25T01:11:49;103304.09;;;10.20;67.22
64739;BME280;51175;51.186;0.276;2023-01-25T01:12:19;103306.75;;;10.20;67.01
64739;BME280;51175;51.186;0.276;2023-01-25T01:12:50;103302.47;;;10.19;67.05
64739;BME280;51175;51.186;0.276;2023-01-25T01:13:20;103307.56;;;10.21;67.18
64739;BME280;51175;51.186;0.276;2023-01-25T01:13:50;103296.38;;;10.18;67.15
64739;BME280;51175;51.186;0.276;2023-01-25T01:14:22;103299.66;;;10.21;67.13
64739;BME280;51175;51.186;0.276;2023-01-25T01:14:52;103305.91;;;10.19;67.12
64739;BME280;51175;51.186;0.276;2023-01-25T01:15:22;103303.28;;;10.19;67.14
64739;BME280;51175;51.186;0.276;2023-01-25T01:15:54;103299.84;;;10.19;67.16
64739;BME280;51175;51.186;0.276;2023-01-25T01:16:25;103295.34;;;10.19;67.18
64739;BME280;51175;51.186;0.276;2023-01-25T01:16:56;103293.72;;;10.18;67.13
64739;BME280;51175;51.186;0.276;2023-01-25T01:17:26;103300.63;;;10.19;66.89
64739;BME280;51175;51.186;0.276;2023-01-25T01:17:57;103302.47;;;10.19;67.16
64739;BME280;51175;51.186;0.276;2023-01-25T01:18:32;103297.19;;;10.19;67.06
64739;BME280;51175;51.186;0.276;2023-01-25T01:19:03;103302.47;;;10.19;67.07
64739;BME280;51175;51.186;0.276;2023-01-25T01:19:33;103298.00;;;10.19;67.23
64739;BME280;51175;51.186;0.276;2023-01-25T01:20:04;103303.28;;;10.19;67.26
64739;BME280;51175;51.186;0.276;2023-01-25T01:20:35;103304.09;;;10.20;67.27
64739;BME280;51175;51.186;0.276;2023-01-25T01:21:05;103300.63;;;10.19;67.02
64739;BME280;51175;51.186;0.276;2023-01-25T01:21:37;103300.63;;;10.19;67.16
64739;BME280;51175;51.186;0.276;2023-01-25T01:22:07;103299.00;;;10.18;67.10
64739;BME280;51175;51.186;0.276;2023-01-25T01:22:38;103302.47;;;10.19;67.07
64739;BME280;51175;51.186;0.276;2023-01-25T01:23:08;103300.63;;;10.19;67.24
64739;BME280;51175;51.186;0.276;2023-01-25T01:23:39;103291.09;;;10.18;66.96
64739;BME280;51175;51.186;0.276;2023-01-25T01:24:10;103301.66;;;10.18;67.22
64739;BME280;51175;51.186;0.276;2023-01-25T01:24:40;103302.47;;;10.19;67.12
64739;BME280;51175;51.186;0.276;2023-01-25T01:25:11;103301.66;;;10.18;67.21
64739;BME280;51175;51.186;0.276;2023-01-25T01:25:42;103305.13;;;10.19;67.13
64739;BME280;51175;51.186;0.276;2023-01-25T01:26:14;103297.38;;;10.17;67.08
64739;BME280;51175;51.186;0.276;2023-01-25T01:26:45;103300.81;;;10.18;66.99
64739;BME280;51175;51.186;0.276;2023-01-25T01:27:15;103301.66;;;10.18;66.96
64739;BME280;51175;51.186;0.276;2023-01-25T01:27:45;103308.75;;;10.18;67.06
64739;BME280;51175;51.186;0.276;2023-01-25T01:28:16;103305.31;;;10.17;67.20
64739;BME280;51175;51.186;0.276;2023-01-25T01:28:47;103304.28;;;10.18;67.20
64739;BME280;51175;51.186;0.276;2023-01-25T01:29:17;103304.28;;;10.18;67.00
64739;BME280;51175;51.186;0.276;2023-01-25T01:29:47;103299.84;;;10.19;67.22
64739;BME280;51175;51.186;0.276;2023-01-25T01:30:18;103301.66;;;10.18;67.12
64739;BME280;51175;51.186;0.276;2023-01-25T01:30:48;103299.00;;;10.18;67.09
64739;BME280;51175;51.186;0.276;2023-01-25T01:31:21;103302.47;;;10.19;67.09
64739;BME280;51175;51.186;0.276;2023-01-25T01:31:52;103300.81;;;10.18;67.09
64739;BME280;51175;51.186;0.276;2023-01-25T01:32:23;103301.66;;;10.18;66.97
64739;BME280;51175;51.186;0.276;2023-01-25T01:32:53;103305.91;;;10.19;67.21
64739;BME280;51175;51.186;0.276;2023-01-25T01:33:23;103304.28;;;10.18;67.07
64739;BME280;51175;51.186;0.276;2023-01-25T01:33:55;103299.00;;;10.18;67.21
64739;BME280;51175;51.186;0.276;2023-01-25T01:34:26;103303.47;;;10.18;67.02
64739;BME280;51175;51.186;0.276;2023-01-25T01:34:56;103299.00;;;10.18;67.30
64739;BME280;51175;51.186;0.276;2023-01-25T01:35:30;103296.38;;;10.18;67.21
64739;BME280;51175;51.186;0.276;2023-01-25T01:36:13;103298.00;;;10.19;67.29
64739;BME280;51175;51.186;0.276;2023-01-25T01:36:43;103301.66;;;10.18;67.16
64739;BME280;51175;51.186;0.276;2023-01-25T01:37:14;103297.38;;;10.17;66.98
64739;BME280;51175;51.186;0.276;2023-01-25T01:37:44;103300.03;;;10.17;67.22
64739;BME280;51175;51.186;0.276;2023-01-25T01:38:14;103307.13;;;10.17;67.30
64739;BME280;51175;51.186;0.276;2023-01-25T01:38:45;103302.66;;;10.17;67.15
64739;BME280;51175;51.186;0.276;2023-01-25T01:39:16;103300.03;;;10.17;67.14
64739;BME280;51175;51.186;0.276;2023-01-25T01:39:46;103303.47;;;10.18;67.23
64739;BME280;51175;51.186;0.276;2023-01-25T01:40:17;103303.66;;;10.16;67.33
64739;BME280;51175;51.186;0.276;2023-01-25T01:40:48;103298.38;;;10.16;67.26
64739;BME280;51175;51.186;0.276;2023-01-25T01:41:18;103304.47;;;10.17;67.41
64739;BME280;51175;51.186;0.276;2023-01-25T01:41:49;103301.00;;;10.16;67.16
64739;BME280;51175;51.186;0.276;2023-01-25T01:42:19;103302.84;;;10.16;67.19
64739;BME280;51175;51.186;0.276;2023-01-25T01:43:26;103304.47;;;10.17;67.15
64739;BME280;51175;51.186;0.276;2023-01-25T01:43:57;103303.66;;;10.16;67.22
64739;BME280;51175;51.186;0.276;2023-01-25T01:44:45;103308.94;;;10.16;67.19
64739;BME280;51175;51.186;0.276;2023-01-25T01:45:47;103301.00;;;10.16;67.21
64739;BME280;51175;51.186;0.276;2023-01-25T01:46:37;103300.22;;;10.16;67.29
64739;BME280;51175;51.186;0.276;2023-01-25T01:47:13;103300.22;;;10.16;67.13
64739;BME280;51175;51.186;0.276;2023-01-25T01:47:44;103301.19;;;10.15;67.33
64739;BME280;51175;51.186;0.276;2023-01-25T01:48:35;103301.38;;;10.13;67.24
64739;BME280;51175;51.186;0.276;2023-01-25T01:49:15;103307.50;;;10.14;67.26
64739;BME280;51175;51.186;0.276;2023-01-25T01:49:54;103298.75;;;10.13;67.21
64739;BME280;51175;51.186;0.276;2023-01-25T01:50:26;103296.09;;;10.13;67.32
64739;BME280;51175;51.186;0.276;2023-01-25T01:51:23;103302.41;;;10.12;67.25
64739;BME280;51175;51.186;0.276;2023-01-25T01:52:03;103300.59;;;10.13;67.31
64739;BME280;51175;51.186;0.276;2023-01-25T01:52:36;103295.50;;;10.11;67.19
64739;BME280;51175;51.186;0.276;2023-01-25T01:53:07;103301.56;;;10.12;67.23
64739;BME280;51175;51.186;0.276;2023-01-25T01:53:40;103292.03;;;10.11;67.34
64739;BME280;51175;51.186;0.276;2023-01-25T01:54:35;103298.13;;;10.11;67.37
64739;BME280;51175;51.186;0.276;2023-01-25T01:55:13;103297.31;;;10.11;67.32
64739;BME280;51175;51.186;0.276;2023-01-25T01:55:47;103302.59;;;10.11;67.27
64739;BME280;51175;51.186;0.276;2023-01-25T01:56:22;103302.59;;;10.11;67.30
64739;BME280;51175;51.186;0.276;2023-01-25T01:57:14;103292.03;;;10.11;67.51
64739;BME280;51175;51.186;0.276;2023-01-25T01:57:52;103296.47;;;10.10;67.42
64739;BME280;51175;51.186;0.276;2023-01-25T01:58:23;103293.84;;;10.10;67.26
64739;BME280;51175;51.186;0.276;2023-01-25T01:58:54;103293.84;;;10.10;67.36
64739;BME280;51175;51.186;0.276;2023-01-25T01:59:32;103294.84;;;10.09;67.41
64739;BME280;51175;51.186;0.276;2023-01-25T02:00:38;103292.22;;;10.09;67.57
64739;BME280;51175;51.186;0.276;2023-01-25T02:01:10;103285.13;;;10.10;67.58
64739;BME280;51175;51.186;0.276;2023-01-25T02:01:42;103287.75;;;10.10;67.36
64739;BME280;51175;51.186;0.276;2023-01-25T02:02:14;103289.56;;;10.09;67.27
64739;BME280;51175;51.186;0.276;2023-01-25T02:02:45;103284.28;;;10.09;67.48
64739;BME280;51175;51.186;0.276;2023-01-25T02:03:17;103284.28;;;10.09;67.42
64739;BME280;51175;51.186;0.276;2023-01-25T02:03:49;103289.56;;;10.09;67.51
64739;BME280;51175;51.186;0.276;2023-01-25T02:04:21;103286.91;;;10.09;67.42
64739;BME280;51175;51.186;0.276;2023-01-25T02:04:58;103291.19;;;10.10;67.50
64739;BME280;51175;51.186;0.276;2023-01-25T02:06:15;103291.38;;;10.09;67.36
64739;BME280;51175;51.186;0.276;2023-01-25T02:07:14;103285.91;;;10.10;67.30
64739;BME280;51175;51.186;0.276;2023-01-25T02:07:47;103289.56;;;10.09;67.25
64739;BME280;51175;51.186;0.276;2023-01-25T02:08:19;103297.50;;;10.09;67.35
64739;BME280;51175;51.186;0.276;2023-01-25T02:08:51;103294.84;;;10.09;67.37
64739;BME280;51175;51.186;0.276;2023-01-25T02:09:23;103291.38;;;10.09;67.52
64739;BME280;51175;51.186;0.276;2023-01-25T02:09:54;103289.56;;;10.09;67.38
64739;BME280;51175;51.186;0.276;2023-01-25T02:10:25;103292.22;;;10.09;67.39
64739;BME280;51175;51.186;0.276;2023-01-25T02:10:57;103292.22;;;10.09;67.27
64739;BME280;51175;51.186;0.276;2023-01-25T02:11:29;103288.56;;;10.10;67.49
64739;BME280;51175;51.186;0.276;2023-01-25T02:12:02;103290.41;;;10.10;67.49
64739;BME280;51175;51.186;0.276;2023-01-25T02:12:32;103286.09;;;10.09;67.41
64739;BME280;51175;51.186;0.276;2023-01-25T02:13:03;103285.13;;;10.10;67.52
64739;BME280;51175;51.186;0.276;2023-01-25T02:13:35;103287.75;;;10.10;67.39
64739;BME280;51175;51.186;0.276;2023-01-25T02:14:07;103283.28;;;10.10;67.27
64739;BME280;51175;51.186;0.276;2023-01-25T02:14:44;103288.56;;;10.10;67.45
64739;BME280;51175;51.186;0.276;2023-01-25T02:15:16;103283.28;;;10.10;67.25
64739;BME280;51175;51.186;0.276;2023-01-25T02:15:49;103285.13;;;10.10;67.21
64739;BME280;51175;51.186;0.276;2023-01-25T02:16:25;103273.72;;;10.09;67.26
64739;BME280;51175;51.186;0.276;2023-01-25T02:16:56;103285.13;;;10.10;67.29
64739;BME280;51175;51.186;0.276;2023-01-25T02:17:35;103285.13;;;10.10;67.28
64739;BME280;51175;51.186;0.276;2023-01-25T02:18:08;103286.75;;;10.11;67.30
64739;BME280;51175;51.186;0.276;2023-01-25T02:18:39;103284.28;;;10.09;67.39
64739;BME280;51175;51.186;0.276;2023-01-25T02:19:23;103281.63;;;10.09;67.29
64739;BME280;51175;51.186;0.276;2023-01-25T02:20:25;103278.00;;;10.10;67.30
64739;BME280;51175;51.186;0.276;2023-01-25T02:20:59;103273.72;;;10.09;67.40
64739;BME280;51175;51.186;0.276;2023-01-25T02:21:36;103275.53;;;10.09;67.36
64739;BME280;51175;51.186;0.276;2023-01-25T02:22:10;103270.25;;;10.09;67.28
64739;BME280;51175;51.186;0.276;2023-01-25T02:24:00;103272.91;;;10.09;67.25
64739;BME280;51175;51.186;0.276;2023-01-25T02:24:34;103274.72;;;10.08;67.27
64739;BME280;51175;51.186;0.276;2023-01-25T02:25:11;103272.09;;;10.08;67.30
64739;BME280;51175;51.186;0.276;2023-01-25T02:25:42;103280.22;;;10.06;67.27
64739;BME280;51175;51.186;0.276;2023-01-25T02:26:13;103275.72;;;10.07;67.34
64739;BME280;51175;51.186;0.276;2023-01-25T02:26:45;103278.34;;;10.07;67.41
64739;BME280;51175;51.186;0.276;2023-01-25T02:27:15;103279.19;;;10.08;67.26
64739;BME280;51175;51.186;0.276;2023-01-25T02:27:54;103278.34;;;10.07;67.25
64739;BME280;51175;51.186;0.276;2023-01-25T02:29:08;103283.63;;;10.07;67.50
64739;BME280;51175;51.186;0.276;2023-01-25T02:29:40;103285.28;;;10.08;67.31
64739;BME280;51175;51.186;0.276;2023-01-25T02:30:11;103280.22;;;10.06;67.38
64739;BME280;51175;51.186;0.276;2023-01-25T02:30:42;103280.22;;;10.06;67.43
64739;BME280;51175;51.186;0.276;2023-01-25T02:31:12;103277.56;;;10.06;67.48
64739;BME280;51175;51.186;0.276;2023-01-25T02:31:44;103282.84;;;10.06;67.40
64739;BME280;51175;51.186;0.276;2023-01-25T02:32:15;103277.56;;;10.06;67.50
64739;BME280;51175;51.186;0.276;2023-01-25T02:32:45;103286.28;;;10.07;67.29
64739;BME280;51175;51.186;0.276;2023-01-25T02:33:16;103282.00;;;10.06;67.23
64739;BME280;51175;51.186;0.276;2023-01-25T02:33:46;103278.34;;;10.07;67.26
64739;BME280;51175;51.186;0.276;2023-01-25T02:34:17;103281.00;;;10.07;67.27
64739;BME280;51175;51.186;0.276;2023-01-25T02:34:48;103281.00;;;10.07;67.35
64739;BME280;51175;51.186;0.276;2023-01-25T02:35:20;103277.56;;;10.06;67.25
64739;BME280;51175;51.186;0.276;2023-01-25T02:36:32;103280.00;;;10.08;67.42
64739;BME280;51175;51.186;0.276;2023-01-25T02:37:03;103283.63;;;10.07;67.45
64739;BME280;51175;51.186;0.276;2023-01-25T02:37:33;103284.47;;;10.08;67.31
64739;BME280;51175;51.186;0.276;2023-01-25T02:38:04;103281.00;;;10.07;67.26
64739;BME280;51175;51.186;0.276;2023-01-25T02:38:44;103281.84;;;10.08;67.39
64739;BME280;51175;51.186;0.276;2023-01-25T02:39:16;103280.22;;;10.06;67.20
64739;BME280;51175;51.186;0.276;2023-01-25T02:39:47;103288.94;;;10.07;67.21
64739;BME280;51175;51.186;0.276;2023-01-25T02:40:18;103283.63;;;10.07;67.33
64739;BME280;51175;51.186;0.276;2023-01-25T02:41:03;103285.28;;;10.08;67.27
64739;BME280;51175;51.186;0.276;2023-01-25T02:41:37;103281.00;;;10.07;67.26
64739;BME280;51175;51.186;0.276;2023-01-25T02:42:08;103284.47;;;10.08;67.49
64739;BME280;51175;51.186;0.276;2023-01-25T02:42:41;103278.34;;;10.07;67.51
64739;BME280;51175;51.186;0.276;2023-01-25T02:43:13;103280.22;;;10.06;67.28
64739;BME280;51175;51.186;0.276;2023-01-25T02:43:44;103275.72;;;10.07;67.28
64739;BME280;51175;51.186;0.276;2023-01-25T02:44:17;103283.63;;;10.07;67.23
64739;BME280;51175;51.186;0.276;2023-01-25T02:44:49;103282.66;;;10.08;67.19
64739;BME280;51175;51.186;0.276;2023-01-25T02:45:23;103281.00;;;10.07;67.40
64739;BME280;51175;51.186;0.276;2023-01-25T02:46:02;103276.56;;;10.08;67.19
64739;BME280;51175;51.186;0.276;2023-01-25T02:46:41;103281.00;;;10.07;67.10
64739;BME280;51175;51.186;0.276;2023-01-25T02:47:12;103276.72;;;10.06;67.49
64739;BME280;51175;51.186;0.276;2023-01-25T02:47:42;103278.34;;;10.07;67.25
64739;BME280;51175;51.186;0.276;2023-01-25T02:48:12;103275.72;;;10.07;67.43
64739;BME280;51175;51.186;0.276;2023-01-25T02:48:43;103273.06;;;10.07;67.31
64739;BME280;51175;51.186;0.276;2023-01-25T02:49:14;103275.72;;;10.07;67.30
64739;BME280;51175;51.186;0.276;2023-01-25T02:49:44;103281.84;;;10.08;67.37
64739;BME280;51175;51.186;0.276;2023-01-25T02:50:15;103277.38;;;10.08;67.43
64739;BME280;51175;51.186;0.276;2023-01-25T02:50:45;103274.94;;;10.06;67.30
64739;BME280;51175;51.186;0.276;2023-01-25T02:51:15;103273.06;;;10.07;67.32
64739;BME280;51175;51.186;0.276;2023-01-25T02:51:48;103273.06;;;10.07;67.21
64739;BME280;51175;51.186;0.276;2023-01-25T02:52:19;103273.91;;;10.08;67.37
64739;BME280;51175;51.186;0.276;2023-01-25T02:52:49;103275.72;;;10.07;67.34
64739;BME280;51175;51.186;0.276;2023-01-25T02:53:20;103273.06;;;10.07;67.41
64739;BME280;51175;51.186;0.276;2023-01-25T02:53:50;103271.28;;;10.08;67.45
64739;BME280;51175;51.186;0.276;2023-01-25T02:54:21;103271.28;;;10.08;67.35
64739;BME280;51175;51.186;0.276;2023-01-25T02:54:51;103264.38;;;10.06;67.15
64739;BME280;51175;51.186;0.276;2023-01-25T02:55:21;103270.44;;;10.07;67.54
64739;BME280;51175;51.186;0.276;2023-01-25T02:55:52;103266.00;;;10.08;67.41
64739;BME280;51175;51.186;0.276;2023-01-25T02:56:22;103267.78;;;10.07;67.40
64739;BME280;51175;51.186;0.276;2023-01-25T02:56:53;103269.44;;;10.08;67.38
64739;BME280;51175;51.186;0.276;2023-01-25T02:57:24;103263.34;;;10.08;67.51
64739;BME280;51175;51.186;0.276;2023-01-25T02:57:54;103270.44;;;10.07;67.34